Terminal Aerodrome Forecast
Issued by NWS Mobile, AL

Home | Current Version | Previous Version | Text Only | Print | Product List | Glossary On
Versions: 1 2 3 4 5 6 7 8 9 10 11 12 13 14 15 16 17 18 19 20 21
000
FTUS44 KMOB 191128
TAFMOB
TAF
KMOB 191128Z 1912/2012 00000KT 5SM BR FEW018 FEW250
     FM191300 25005KT P6SM FEW250
     FM191600 28006KT P6SM VCSH SCT025 SCT120
     FM200300 00000KT 5SM BR BKN250=

USA.gov is the U.S. government's official web portal to all federal, state and local government web resources and services.